Time;durP1;ratioP1;P1;durP2;ratioP2;P2;SDS_P1;SDS_P2;PMS_P1;PMS_P2;Temp;Humidity;BMP_temperature;BMP_pressure;BME280_temperature;BME280_humidity;BME280_pressure;Samples;Min_cycle;Max_cycle;Signal;HPM_P1;HPM_P2
2022/01/14 00:02:08;;;;;;;35.20;12.80;;;6.60;99.90;;;;;;5022533;28;20041;-88
2022/01/14 00:04:35;;;;;;;31.55;12.07;;;6.40;99.90;;;;;;5035791;28;20044;-86
2022/01/14 00:07:03;;;;;;;31.92;12.40;;;6.40;99.90;;;;;;5002486;28;20461;-88
2022/01/14 00:09:31;;;;;;;35.63;12.60;;;5.90;99.90;;;;;;5016207;28;20087;-89
2022/01/14 00:11:59;;;;;;;31.63;13.38;;;6.00;99.90;;;;;;5004482;28;20051;-89
2022/01/14 00:14:41;;;;;;;32.40;13.15;;;6.00;99.90;;;;;;5006472;28;20072;-85
2022/01/14 00:17:13;;;;;;;38.42;13.00;;;6.00;99.90;;;;;;5014080;28;20492;-85
2022/01/14 00:19:39;;;;;;;29.25;11.82;;;6.00;99.90;;;;;;5005627;28;20037;-91
2022/01/14 00:22:10;;;;;;;30.70;13.30;;;5.90;99.90;;;;;;5005432;28;20123;-88
2022/01/14 00:33:02;;;;;;;40.67;13.27;;;6.00;99.90;;;;;;5029240;28;20064;-89
2022/01/14 00:35:28;;;;;;;36.60;13.32;;;6.60;99.90;;;;;;5039146;28;20048;-84
2022/01/14 00:37:54;;;;;;;25.98;11.68;;;6.30;99.90;;;;;;5032661;28;20029;-85
2022/01/14 00:40:20;;;;;;;33.45;13.40;;;6.00;99.90;;;;;;5035638;28;20114;-88
2022/01/14 00:42:47;;;;;;;29.77;13.45;;;6.30;99.90;;;;;;5058433;28;20156;-87
2022/01/14 00:45:14;;;;;;;33.65;13.75;;;6.00;99.90;;;;;;5047999;28;20124;-88
2022/01/14 00:47:40;;;;;;;36.38;14.20;;;6.20;99.90;;;;;;5049585;28;20432;-87
2022/01/14 00:50:13;;;;;;;36.03;13.98;;;6.80;99.90;;;;;;5047312;28;20060;-90
2022/01/14 00:52:40;;;;;;;41.28;15.27;;;6.00;99.90;;;;;;5031858;28;20073;-88
2022/01/14 00:55:13;;;;;;;32.20;14.02;;;5.90;99.90;;;;;;5031994;28;20071;-86
2022/01/14 01:00:32;;;;;;;32.78;14.68;;;6.00;99.90;;;;;;5044059;28;20048;-82
2022/01/14 01:02:59;;;;;;;35.63;14.73;;;5.80;99.90;;;;;;5062199;28;20078;-84
2022/01/14 01:05:25;;;;;;;35.85;13.60;;;5.80;99.90;;;;;;5046802;28;20159;-84
2022/01/14 01:08:09;;;;;;;37.38;14.60;;;6.20;99.90;;;;;;5030424;28;20029;-86
2022/01/14 01:10:36;;;;;;;38.08;14.65;;;6.50;99.90;;;;;;5047498;28;20103;-86
2022/01/14 01:13:15;;;;;;;41.50;14.27;;;6.40;99.90;;;;;;5048534;28;20513;-86
2022/01/14 01:15:41;;;;;;;38.25;13.75;;;6.00;99.90;;;;;;5026307;28;20037;-85
2022/01/14 01:18:07;;;;;;;41.85;14.40;;;5.70;99.90;;;;;;5029252;28;20121;-88
2022/01/14 01:20:32;;;;;;;34.55;15.05;;;5.70;99.90;;;;;;5035682;28;20044;-86
2022/01/14 01:22:58;;;;;;;45.47;15.60;;;5.90;99.90;;;;;;5058463;28;20044;-89
2022/01/14 01:25:27;;;;;;;46.55;14.38;;;6.10;99.90;;;;;;5038686;28;20082;-85
2022/01/14 01:27:54;;;;;;;37.45;15.40;;;5.60;99.90;;;;;;5037555;28;20173;-90
2022/01/14 01:32:58;;;;;;;40.05;15.50;;;5.70;99.90;;;;;;5053952;28;20105;-88
2022/01/14 01:35:25;;;;;;;42.22;15.70;;;6.40;99.90;;;;;;5043734;28;20144;-87
2022/01/14 01:37:51;;;;;;;42.97;15.93;;;6.40;99.90;;;;;;5056471;28;20060;-90
2022/01/14 01:40:19;;;;;;;31.98;13.98;;;6.50;99.90;;;;;;5035384;28;20464;-79
2022/01/14 01:42:45;;;;;;;45.75;15.60;;;6.10;99.90;;;;;;5028524;28;20079;-81
2022/01/14 01:45:15;;;;;;;33.08;14.82;;;5.80;99.90;;;;;;5027476;28;20037;-78
2022/01/14 01:47:41;;;;;;;31.38;14.30;;;5.80;99.90;;;;;;5029686;28;20051;-77
2022/01/14 01:50:13;;;;;;;42.55;16.52;;;5.80;99.90;;;;;;5042213;28;20052;-79
2022/01/14 01:52:39;;;;;;;33.83;15.27;;;5.80;99.90;;;;;;5032413;28;20088;-82
2022/01/14 01:55:06;;;;;;;39.83;16.17;;;5.70;99.90;;;;;;5041347;28;20144;-80
2022/01/14 01:57:32;;;;;;;39.75;15.57;;;5.80;99.90;;;;;;5044942;28;20453;-79
2022/01/14 01:59:58;;;;;;;44.67;15.57;;;5.80;99.90;;;;;;5041436;28;20032;-82
2022/01/14 02:02:24;;;;;;;35.35;16.02;;;5.80;99.90;;;;;;5068354;28;20028;-81
2022/01/14 02:04:49;;;;;;;38.70;14.45;;;5.80;99.90;;;;;;5061594;28;20072;-81
2022/01/14 02:07:15;;;;;;;41.45;15.88;;;6.10;99.90;;;;;;5061709;28;20185;-80
2022/01/14 02:09:41;;;;;;;39.80;15.27;;;5.80;99.90;;;;;;5062460;28;20036;-80
2022/01/14 02:12:10;;;;;;;37.72;15.25;;;5.90;99.90;;;;;;5050004;28;20151;-84
2022/01/14 02:23:01;;;;;;;40.28;16.13;;;6.00;99.90;;;;;;5055519;28;20049;-83
2022/01/14 02:25:30;;;;;;;34.67;14.98;;;6.00;99.90;;;;;;5038695;28;20502;-79
2022/01/14 02:28:01;;;;;;;35.88;15.02;;;6.00;99.90;;;;;;5062528;28;20054;-78
2022/01/14 02:30:31;;;;;;;32.67;14.23;;;6.00;99.90;;;;;;5046768;28;20044;-83
2022/01/14 02:32:57;;;;;;;44.88;15.82;;;6.10;99.90;;;;;;5049410;28;20541;-81
2022/01/14 02:35:23;;;;;;;37.05;13.30;;;6.10;99.90;;;;;;5075885;28;20146;-82
2022/01/14 02:37:49;;;;;;;38.75;15.93;;;6.10;99.90;;;;;;5055450;28;20089;-81
2022/01/14 02:40:16;;;;;;;34.47;14.30;;;6.20;99.90;;;;;;5082630;28;20043;-80
2022/01/14 02:42:42;;;;;;;53.58;16.98;;;6.10;99.90;;;;;;5069622;28;20364;-80
2022/01/14 02:45:11;;;;;;;39.33;15.80;;;6.10;99.90;;;;;;5068822;28;20033;-82
2022/01/14 02:47:37;;;;;;;33.97;15.55;;;6.10;99.90;;;;;;5049344;28;20174;-79
2022/01/14 02:50:09;;;;;;;42.92;16.70;;;6.10;99.90;;;;;;5056771;28;20035;-82
2022/01/14 02:52:56;;;;;;;40.67;17.48;;;6.10;99.90;;;;;;5033670;28;20178;-81
2022/01/14 02:55:29;;;;;;;43.78;17.35;;;5.90;99.90;;;;;;5053738;28;20040;-81
2022/01/14 02:57:57;;;;;;;34.70;15.38;;;6.10;99.90;;;;;;5073998;28;20037;-84
2022/01/14 03:00:28;;;;;;;28.73;16.00;;;6.10;99.90;;;;;;5034943;28;20051;-81
2022/01/14 03:02:55;;;;;;;41.63;17.00;;;6.10;99.90;;;;;;5046175;28;20175;-82
2022/01/14 03:05:21;;;;;;;41.38;15.85;;;6.10;99.90;;;;;;5041030;28;20536;-83
2022/01/14 03:07:48;;;;;;;46.90;16.63;;;6.10;99.90;;;;;;5052478;28;20071;-84
2022/01/14 03:10:16;;;;;;;42.05;15.82;;;6.10;99.90;;;;;;5047861;28;20040;-80
2022/01/14 03:12:43;;;;;;;33.47;16.02;;;6.10;99.90;;;;;;5046457;28;20447;-86
2022/01/14 03:15:10;;;;;;;37.05;16.02;;;6.20;99.90;;;;;;5047567;28;20037;-79
2022/01/14 03:17:36;;;;;;;42.83;17.23;;;6.10;99.90;;;;;;5032921;28;20099;-82
2022/01/14 03:20:05;;;;;;;42.70;17.05;;;6.10;99.90;;;;;;5050317;28;20113;-84
2022/01/14 03:22:42;;;;;;;42.55;17.73;;;6.20;99.90;;;;;;5036792;28;20048;-81
2022/01/14 03:27:53;;;;;;;42.88;18.02;;;6.20;99.90;;;;;;5057821;28;20032;-81
2022/01/14 03:30:20;;;;;;;40.17;17.98;;;6.20;99.90;;;;;;5036778;28;20372;-83
2022/01/14 03:32:46;;;;;;;41.20;17.38;;;6.20;99.90;;;;;;5047944;28;20051;-81
2022/01/14 03:35:13;;;;;;;43.00;17.80;;;6.30;99.90;;;;;;5048695;28;20049;-80
2022/01/14 03:37:39;;;;;;;37.80;18.13;;;6.20;99.90;;;;;;5033104;28;20453;-83
2022/01/14 03:40:07;;;;;;;39.15;17.05;;;6.20;99.90;;;;;;5018858;28;20042;-85
2022/01/14 03:42:33;;;;;;;36.13;15.75;;;6.30;99.90;;;;;;4999506;28;20040;-82
2022/01/14 03:44:59;;;;;;;44.35;17.80;;;6.20;99.90;;;;;;5017383;28;20041;-80
2022/01/14 03:47:25;;;;;;;41.10;16.95;;;6.30;99.90;;;;;;5052091;28;20599;-81
2022/01/14 03:49:51;;;;;;;42.28;18.50;;;6.30;99.90;;;;;;5056333;28;20124;-79
2022/01/14 03:52:17;;;;;;;41.42;16.10;;;6.30;99.90;;;;;;5026262;28;20095;-81
2022/01/14 03:54:43;;;;;;;32.13;16.40;;;6.30;99.90;;;;;;5033082;28;20349;-82
2022/01/14 03:57:09;;;;;;;46.65;17.45;;;6.30;99.90;;;;;;5013749;28;20075;-84
2022/01/14 03:59:35;;;;;;;41.40;16.92;;;6.20;99.90;;;;;;5015589;28;20084;-82
2022/01/14 04:02:01;;;;;;;38.63;17.70;;;6.80;99.90;;;;;;5024287;28;20437;-82
2022/01/14 04:04:26;;;;;;;37.42;17.83;;;6.20;99.90;;;;;;5055498;28;20033;-84
2022/01/14 04:06:52;;;;;;;41.08;17.30;;;6.20;99.90;;;;;;5028945;28;20045;-79
2022/01/14 04:09:18;;;;;;;39.75;18.27;;;6.20;99.90;;;;;;5024267;28;20037;-83
2022/01/14 04:11:45;;;;;;;40.17;18.75;;;6.20;99.90;;;;;;5009552;28;20142;-80
2022/01/14 04:16:52;;;;;;;44.22;18.35;;;6.10;99.90;;;;;;5045757;28;20102;-81
2022/01/14 04:19:18;;;;;;;42.15;18.42;;;6.10;99.90;;;;;;5034370;28;20044;-80
2022/01/14 04:21:44;;;;;;;37.90;17.90;;;6.10;99.90;;;;;;5029861;28;20046;-81
2022/01/14 04:24:10;;;;;;;42.30;18.38;;;6.00;99.90;;;;;;5043756;28;20125;-85
2022/01/14 04:26:36;;;;;;;42.13;18.75;;;6.00;99.90;;;;;;5043532;28;20495;-82
2022/01/14 04:29:02;;;;;;;46.58;18.45;;;6.00;99.90;;;;;;5041845;28;20068;-83
2022/01/14 04:31:28;;;;;;;51.50;18.38;;;5.90;99.90;;;;;;5028768;28;20045;-80
2022/01/14 04:33:54;;;;;;;44.70;17.95;;;5.90;99.90;;;;;;5049971;28;20042;-81
2022/01/14 04:36:19;;;;;;;39.47;18.52;;;5.80;99.90;;;;;;5059822;28;20036;-81
2022/01/14 04:38:45;;;;;;;43.92;18.70;;;5.80;99.90;;;;;;5023819;28;20823;-80
2022/01/14 04:41:12;;;;;;;43.95;18.73;;;5.70;99.90;;;;;;5033240;28;20050;-82
2022/01/14 04:43:38;;;;;;;44.40;16.25;;;5.80;99.90;;;;;;5031625;28;20116;-82
2022/01/14 04:48:38;;;;;;;41.33;18.45;;;5.90;99.90;;;;;;5056033;28;20056;-86
2022/01/14 04:51:06;;;;;;;39.55;18.05;;;5.70;99.90;;;;;;5020799;28;20045;-82
2022/01/14 04:53:33;;;;;;;35.03;18.17;;;5.70;99.90;;;;;;5052545;28;20064;-80
2022/01/14 04:55:59;;;;;;;34.80;18.88;;;5.80;99.90;;;;;;5040629;28;20034;-83
2022/01/14 04:58:27;;;;;;;41.45;18.50;;;5.80;99.90;;;;;;5034574;28;20049;-82
2022/01/14 05:00:53;;;;;;;36.47;19.13;;;6.10;99.90;;;;;;5060462;28;20507;-84
2022/01/14 05:03:19;;;;;;;41.47;18.70;;;5.70;99.90;;;;;;5007237;28;20064;-83
2022/01/14 05:05:48;;;;;;;33.80;17.60;;;5.80;99.90;;;;;;5037471;28;20049;-86
2022/01/14 05:08:26;;;;;;;36.70;18.52;;;5.70;99.90;;;;;;5036367;28;20377;-83
2022/01/14 05:13:23;;;;;;;38.28;18.75;;;5.70;99.90;;;;;;5036888;28;20034;-84
2022/01/14 05:15:49;;;;;;;40.50;18.23;;;5.70;99.90;;;;;;5024203;28;20045;-81
2022/01/14 05:18:14;;;;;;;38.28;18.60;;;5.80;99.90;;;;;;5054227;28;20121;-83
2022/01/14 05:20:40;;;;;;;47.05;18.48;;;5.80;99.90;;;;;;5058033;28;20041;-83
2022/01/14 05:23:05;;;;;;;52.35;18.55;;;5.80;99.90;;;;;;5065034;28;20072;-86
2022/01/14 05:25:31;;;;;;;44.45;19.65;;;5.80;99.90;;;;;;5062649;28;20037;-81
2022/01/14 05:27:57;;;;;;;36.97;18.13;;;5.80;99.90;;;;;;5022196;28;20060;-83
2022/01/14 05:30:22;;;;;;;55.88;19.65;;;5.80;99.90;;;;;;5054765;28;20072;-83
2022/01/14 05:32:51;;;;;;;44.08;19.30;;;5.80;99.90;;;;;;5023285;28;20117;-83
2022/01/14 05:35:19;;;;;;;46.47;18.70;;;6.00;99.90;;;;;;5034113;28;20048;-79
2022/01/14 05:37:45;;;;;;;42.00;19.80;;;5.90;99.90;;;;;;5032283;28;20032;-85
2022/01/14 05:40:14;;;;;;;41.15;19.05;;;5.90;99.90;;;;;;5038918;28;20033;-82
2022/01/14 05:42:40;;;;;;;43.10;18.85;;;5.80;99.90;;;;;;5044292;28;20391;-85
2022/01/14 05:45:09;;;;;;;40.17;18.33;;;5.90;99.90;;;;;;5040904;28;20063;-86
2022/01/14 05:47:38;;;;;;;32.53;16.95;;;6.00;99.90;;;;;;5045617;28;20024;-83
2022/01/14 05:50:24;;;;;;;45.20;18.58;;;6.00;99.90;;;;;;5029616;28;20045;-85
2022/01/14 05:52:50;;;;;;;39.10;18.98;;;6.00;99.90;;;;;;5021523;28;20373;-82
2022/01/14 05:55:18;;;;;;;39.75;18.15;;;6.00;99.90;;;;;;5009052;28;20204;-86
2022/01/14 05:57:44;;;;;;;41.38;17.50;;;5.90;99.90;;;;;;5027648;28;20037;-80
2022/01/14 06:00:14;;;;;;;38.35;18.55;;;6.10;99.90;;;;;;5021441;28;20144;-84
2022/01/14 06:02:40;;;;;;;35.20;18.63;;;6.00;99.90;;;;;;5024318;28;20048;-81
2022/01/14 06:05:06;;;;;;;39.88;18.65;;;6.00;99.90;;;;;;5028004;28;20057;-82
2022/01/14 06:07:32;;;;;;;52.08;18.52;;;6.00;99.90;;;;;;5003444;28;20067;-81
2022/01/14 06:09:57;;;;;;;36.63;18.15;;;6.00;99.90;;;;;;5007663;28;20166;-80
2022/01/14 06:12:23;;;;;;;49.40;18.38;;;6.10;99.90;;;;;;5020277;28;20473;-81
2022/01/14 06:14:49;;;;;;;31.65;17.20;;;6.00;99.90;;;;;;5020992;28;20037;-78
2022/01/14 06:17:14;;;;;;;38.83;17.98;;;6.00;99.90;;;;;;5025331;28;20052;-83
2022/01/14 06:19:40;;;;;;;33.55;17.65;;;6.10;99.90;;;;;;5007916;28;20049;-79
2022/01/14 06:22:06;;;;;;;38.28;18.20;;;6.10;99.90;;;;;;5039944;28;20052;-81
2022/01/14 06:24:31;;;;;;;37.13;17.25;;;6.10;99.90;;;;;;5043780;28;20477;-86
2022/01/14 06:26:57;;;;;;;43.15;17.33;;;6.00;99.90;;;;;;5057964;28;20143;-85
2022/01/14 06:29:23;;;;;;;40.38;17.17;;;6.10;99.90;;;;;;5061150;28;20398;-83
2022/01/14 06:31:49;;;;;;;39.00;17.88;;;6.00;99.90;;;;;;5046691;28;20056;-88
2022/01/14 06:34:14;;;;;;;37.95;16.52;;;6.30;99.90;;;;;;5020870;28;20116;-83
2022/01/14 06:36:41;;;;;;;36.58;16.30;;;6.10;99.90;;;;;;5042824;28;20045;-80
2022/01/14 06:39:08;;;;;;;38.30;16.70;;;6.10;99.90;;;;;;5026794;28;20048;-83
2022/01/14 06:41:33;;;;;;;39.53;17.15;;;6.10;99.90;;;;;;5047103;28;20040;-83
2022/01/14 06:43:59;;;;;;;37.78;16.83;;;6.00;99.90;;;;;;5064319;28;20045;-79
2022/01/14 06:46:25;;;;;;;36.10;15.52;;;6.20;99.90;;;;;;5039548;28;20408;-79
2022/01/14 06:48:50;;;;;;;36.00;16.35;;;6.10;99.90;;;;;;5044835;28;20036;-84
2022/01/14 06:51:16;;;;;;;38.08;16.25;;;6.30;99.90;;;;;;5054608;28;20032;-78
2022/01/14 06:53:42;;;;;;;36.10;15.93;;;6.00;99.90;;;;;;5040737;28;20055;-81
2022/01/14 06:56:11;;;;;;;39.45;15.38;;;6.10;99.90;;;;;;5054700;28;20052;-84
2022/01/14 06:58:37;;;;;;;37.28;16.23;;;6.00;99.90;;;;;;5031031;28;20472;-84
2022/01/14 07:01:03;;;;;;;35.25;15.23;;;6.00;99.90;;;;;;5026079;28;20499;-83
2022/01/14 07:03:29;;;;;;;30.30;14.20;;;6.10;99.90;;;;;;5045669;28;20056;-78
2022/01/14 07:05:55;;;;;;;35.65;14.77;;;6.20;99.90;;;;;;5023990;28;20512;-82
2022/01/14 07:08:20;;;;;;;38.25;14.88;;;6.50;99.90;;;;;;5039812;28;20052;-79
2022/01/14 07:10:46;;;;;;;40.13;14.77;;;6.10;99.90;;;;;;5052521;28;20044;-79
2022/01/14 07:13:12;;;;;;;32.97;14.00;;;6.10;99.90;;;;;;5060342;28;20033;-78
2022/01/14 07:15:37;;;;;;;38.95;13.95;;;6.10;99.90;;;;;;5049898;28;20035;-81
2022/01/14 07:18:03;;;;;;;31.25;13.32;;;6.10;99.90;;;;;;5044374;28;20412;-80
2022/01/14 07:20:29;;;;;;;35.47;13.20;;;6.20;99.90;;;;;;5053037;28;20036;-81
2022/01/14 07:22:54;;;;;;;33.50;12.85;;;6.10;99.90;;;;;;5023596;28;20468;-79
2022/01/14 07:25:21;;;;;;;40.97;13.25;;;6.10;99.90;;;;;;5017489;28;20072;-78
2022/01/14 07:27:47;;;;;;;36.72;13.00;;;6.20;99.90;;;;;;5039549;28;20049;-83
2022/01/14 07:30:15;;;;;;;41.33;12.80;;;6.20;99.90;;;;;;5025915;28;20133;-78
2022/01/14 07:32:42;;;;;;;27.85;11.77;;;6.30;99.90;;;;;;5027065;28;20798;-84
2022/01/14 07:35:09;;;;;;;30.02;11.10;;;6.20;99.90;;;;;;5052182;28;20061;-81
2022/01/14 07:37:35;;;;;;;29.77;12.00;;;6.10;99.90;;;;;;5038425;28;20094;-84
2022/01/14 07:40:01;;;;;;;35.83;12.55;;;6.20;99.90;;;;;;5021755;28;20037;-84
2022/01/14 07:42:27;;;;;;;36.05;12.48;;;6.20;99.90;;;;;;5010659;28;20498;-84
2022/01/14 07:44:53;;;;;;;30.17;10.88;;;6.40;99.90;;;;;;5022917;28;20080;-79
2022/01/14 07:47:18;;;;;;;24.20;10.55;;;6.20;99.90;;;;;;5019066;28;20119;-80
2022/01/14 07:49:44;;;;;;;32.05;12.35;;;6.20;99.90;;;;;;5022858;28;20510;-83
2022/01/14 07:52:10;;;;;;;23.35;11.32;;;6.20;99.90;;;;;;5025104;28;20086;-86
2022/01/14 07:54:35;;;;;;;37.90;12.18;;;6.30;99.90;;;;;;5001345;28;20408;-82
2022/01/14 07:57:02;;;;;;;31.67;11.60;;;6.30;99.90;;;;;;5023391;28;20184;-77
2022/01/14 07:59:31;;;;;;;32.30;12.15;;;6.30;99.90;;;;;;5013177;28;20057;-81
2022/01/14 08:01:58;;;;;;;28.98;11.50;;;6.30;99.90;;;;;;5018893;28;20050;-80
2022/01/14 08:04:25;;;;;;;28.77;11.32;;;6.30;99.90;;;;;;4996606;28;20699;-78
2022/01/14 08:06:53;;;;;;;26.38;11.05;;;6.20;99.90;;;;;;4995507;28;20099;-78
2022/01/14 08:09:20;;;;;;;34.05;11.07;;;6.20;99.90;;;;;;5011331;28;20129;-79
2022/01/14 08:11:46;;;;;;;30.17;10.18;;;6.20;99.90;;;;;;5009424;28;20089;-79
2022/01/14 08:14:13;;;;;;;35.08;10.63;;;6.30;99.90;;;;;;4996942;28;20050;-80
2022/01/14 08:16:42;;;;;;;35.60;9.82;;;6.30;99.90;;;;;;4997234;28;20083;-83
2022/01/14 08:19:10;;;;;;;30.98;9.63;;;6.30;99.90;;;;;;5008321;28;20040;-83
2022/01/14 08:21:47;;;;;;;32.10;8.70;;;6.30;99.90;;;;;;5005801;28;20112;-81
2022/01/14 08:24:19;;;;;;;30.50;7.60;;;6.60;99.90;;;;;;5004678;28;20060;-82
2022/01/14 08:26:45;;;;;;;31.15;8.90;;;6.30;99.90;;;;;;5005012;28;20044;-83
2022/01/14 08:29:12;;;;;;;28.73;9.45;;;6.30;99.90;;;;;;5007356;28;20041;-83
2022/01/14 08:31:47;;;;;;;23.77;8.75;;;6.30;99.90;;;;;;5017813;28;20045;-85
2022/01/14 08:34:12;;;;;;;;;;;6.40;99.90;;;;;;5009880;28;20088;-83
2022/01/14 08:36:38;;;;;;;27.55;7.72;;;6.40;99.90;;;;;;5028749;28;19924;-82
2022/01/14 08:39:04;;;;;;;25.75;7.90;;;6.50;99.90;;;;;;5031422;28;20128;-83
2022/01/14 08:41:30;;;;;;;23.33;7.00;;;6.50;99.90;;;;;;5048241;28;20055;-82
2022/01/14 08:44:00;;;;;;;22.67;7.93;;;6.60;99.90;;;;;;5032170;28;20048;-82
2022/01/14 08:46:27;;;;;;;31.63;6.88;;;6.50;99.90;;;;;;5046140;28;20058;-83
2022/01/14 08:48:54;;;;;;;26.95;7.25;;;6.50;99.90;;;;;;5032805;28;20070;-83
2022/01/14 08:51:23;;;;;;;24.52;6.63;;;6.60;99.90;;;;;;5064083;28;20044;-83
2022/01/14 08:53:48;;;;;;;24.92;6.60;;;6.60;99.90;;;;;;5046044;28;20088;-85
2022/01/14 08:56:14;;;;;;;22.08;6.78;;;6.60;99.90;;;;;;5037772;28;20069;-83
2022/01/14 08:58:40;;;;;;;18.60;5.75;;;6.70;99.90;;;;;;5029865;28;20044;-83
2022/01/14 09:01:06;;;;;;;23.55;6.60;;;7.10;99.90;;;;;;5043738;28;20122;-83
2022/01/14 09:03:32;;;;;;;27.27;6.63;;;6.60;99.90;;;;;;5029870;28;20032;-84
2022/01/14 09:05:58;;;;;;;24.70;6.63;;;7.50;99.90;;;;;;5031866;28;20036;-83
2022/01/14 09:08:25;;;;;;;16.58;6.13;;;6.70;99.90;;;;;;5064865;28;20383;-84
2022/01/14 09:10:51;;;;;;;22.05;6.05;;;6.90;99.90;;;;;;5031879;28;20485;-84
2022/01/14 09:13:19;;;;;;;19.38;5.65;;;6.70;99.90;;;;;;5044977;28;20036;-83
2022/01/14 09:15:46;;;;;;;25.08;5.65;;;6.80;99.90;;;;;;5022874;28;20068;-83
2022/01/14 09:18:12;;;;;;;16.30;5.30;;;6.80;99.90;;;;;;5028771;28;20056;-84
2022/01/14 09:20:38;;;;;;;22.52;5.55;;;6.80;99.90;;;;;;5042173;28;20056;-84
2022/01/14 09:23:04;;;;;;;18.40;5.03;;;6.90;99.90;;;;;;5042336;28;20060;-83
2022/01/14 09:25:30;;;;;;;17.75;4.97;;;7.50;99.90;;;;;;5025449;28;20422;-84
2022/01/14 09:28:13;;;;;;;24.48;5.38;;;7.00;99.90;;;;;;5013403;28;20067;-84
2022/01/14 09:30:39;;;;;;;22.15;5.22;;;7.00;99.90;;;;;;5025950;28;20488;-85
2022/01/14 09:33:06;;;;;;;20.70;4.75;;;6.90;99.90;;;;;;5023289;28;20067;-87
2022/01/14 09:35:32;;;;;;;18.70;4.45;;;7.00;99.90;;;;;;5029361;28;20098;-83
2022/01/14 09:37:58;;;;;;;21.33;4.50;;;7.80;99.90;;;;;;5033667;28;20116;-83
2022/01/14 09:40:24;;;;;;;16.42;4.20;;;7.20;99.90;;;;;;5052474;28;20123;-84
2022/01/14 09:43:41;;;;;;;19.23;4.82;;;7.60;99.90;;;;;;5049652;28;20141;-84
2022/01/14 09:46:11;;;;;;;18.88;3.67;;;7.20;99.90;;;;;;5028051;28;20049;-84
2022/01/14 09:48:38;;;;;;;20.10;3.70;;;7.90;99.90;;;;;;5062349;28;20045;-85
2022/01/14 09:51:05;;;;;;;15.57;3.47;;;7.20;99.90;;;;;;5062855;28;20045;-83
2022/01/14 09:53:31;;;;;;;21.15;4.65;;;7.90;99.90;;;;;;5045096;28;20088;-84
2022/01/14 09:55:57;;;;;;;15.68;3.92;;;7.20;99.90;;;;;;5044459;28;20071;-83
2022/01/14 09:58:24;;;;;;;19.30;4.95;;;7.40;99.90;;;;;;5042873;28;20519;-82
2022/01/14 10:00:50;;;;;;;18.05;4.10;;;7.80;99.90;;;;;;5045757;28;20111;-85
2022/01/14 10:03:25;;;;;;;19.27;4.00;;;7.50;99.90;;;;;;5031244;28;20132;-86
2022/01/14 10:05:57;;;;;;;21.30;3.17;;;7.30;99.90;;;;;;5043243;28;20033;-83
2022/01/14 10:08:26;;;;;;;19.90;3.70;;;7.30;99.90;;;;;;5032284;28;20059;-85
2022/01/14 10:10:59;;;;;;;18.25;3.67;;;7.40;99.90;;;;;;5056549;28;20113;-82
2022/01/14 10:13:33;;;;;;;18.88;3.88;;;7.30;99.90;;;;;;5043993;28;20052;-81
2022/01/14 10:16:09;;;;;;;20.20;3.60;;;7.60;99.90;;;;;;5049981;28;20072;-80
2022/01/14 10:18:36;;;;;;;20.33;3.55;;;7.40;99.90;;;;;;5037468;28;20541;-79
2022/01/14 10:21:07;;;;;;;24.58;4.10;;;7.40;99.90;;;;;;5055854;28;20051;-80
2022/01/14 10:23:51;;;;;;;22.33;3.67;;;7.40;99.90;;;;;;5068526;28;20068;-84
2022/01/14 10:26:17;;;;;;;17.60;3.35;;;7.50;99.90;;;;;;5049366;28;20024;-85
2022/01/14 10:28:44;;;;;;;20.35;3.80;;;7.60;99.90;;;;;;5043574;28;20135;-86
2022/01/14 10:31:10;;;;;;;21.52;3.75;;;7.60;99.90;;;;;;5043365;28;20471;-81
2022/01/14 10:33:36;;;;;;;17.45;3.10;;;7.60;99.90;;;;;;5037402;28;20076;-81
2022/01/14 10:36:05;;;;;;;18.13;3.65;;;7.60;99.90;;;;;;5023823;28;20076;-83
2022/01/14 10:38:46;;;;;;;14.63;2.78;;;7.60;99.90;;;;;;5048520;28;20049;-83
2022/01/14 10:41:12;;;;;;;22.80;3.03;;;7.60;99.90;;;;;;5027915;28;20404;-83
2022/01/14 10:43:42;;;;;;;12.40;2.80;;;7.60;99.90;;;;;;5012101;28;20161;-83
2022/01/14 10:46:09;;;;;;;21.30;3.50;;;7.60;99.90;;;;;;5023499;28;20033;-81
2022/01/14 10:48:41;;;;;;;13.25;2.83;;;7.60;99.90;;;;;;5029626;28;20057;-83
2022/01/14 10:51:16;;;;;;;11.48;3.00;;;7.60;99.90;;;;;;5022229;28;20168;-83
2022/01/14 10:53:44;;;;;;;19.00;3.55;;;7.50;99.90;;;;;;5050573;28;20057;-82
2022/01/14 10:56:17;;;;;;;26.02;3.58;;;7.60;99.90;;;;;;5021930;28;20109;-83
2022/01/14 10:58:56;;;;;;;18.20;3.70;;;7.50;99.90;;;;;;5014092;28;20049;-83
2022/01/14 11:01:38;;;;;;;21.15;4.07;;;7.60;99.90;;;;;;5024365;28;20128;-83
2022/01/14 11:04:36;;;;;;;27.10;4.25;;;7.60;99.90;;;;;;5012734;28;20111;-83
2022/01/14 11:10:45;;;;;;;21.80;3.58;;;7.20;99.90;;;;;;4996188;28;20052;-83
2022/01/14 11:13:16;;;;;;;23.92;3.85;;;7.50;99.90;;;;;;4936689;29;20516;-83
2022/01/14 11:16:08;;;;;;;27.27;4.55;;;7.60;99.90;;;;;;4932629;29;20043;-83
2022/01/14 11:18:58;;;;;;;18.27;4.57;;;7.50;99.90;;;;;;4923635;28;20034;-84
2022/01/14 11:24:37;;;;;;;23.35;4.10;;;8.30;99.90;;;;;;4943378;28;20057;-81
2022/01/14 11:27:16;;;;;;;28.10;4.60;;;7.60;99.90;;;;;;4928895;28;20130;-83
2022/01/14 11:41:13;;;;;;;29.15;5.38;;;7.60;99.90;;;;;;4930556;29;20114;-86
2022/01/14 11:48:52;;;;;;;29.70;4.65;;;7.10;99.90;;;;;;4898219;29;20091;-84
2022/01/14 11:51:23;;;;;;;21.75;4.38;;;7.50;99.90;;;;;;4813056;29;20112;-78
2022/01/14 11:53:51;;;;;;;20.40;4.57;;;7.70;99.90;;;;;;4814922;29;20529;-79
2022/01/14 11:56:32;;;;;;;18.23;4.60;;;7.70;99.90;;;;;;4814142;29;20061;-79
2022/01/14 11:59:22;;;;;;;27.48;5.45;;;7.70;99.90;;;;;;4815932;29;20157;-78
2022/01/14 12:01:52;;;;;;;20.45;4.53;;;7.70;99.90;;;;;;4800065;29;20076;-77
2022/01/14 12:04:19;;;;;;;30.70;4.93;;;7.70;99.90;;;;;;4801723;29;20161;-78
2022/01/14 12:06:51;;;;;;;18.75;4.40;;;7.70;99.90;;;;;;4810845;29;20172;-76
2022/01/14 12:09:20;;;;;;;30.63;5.32;;;7.70;99.90;;;;;;4812781;29;20061;-79
2022/01/14 12:12:32;;;;;;;16.40;4.07;;;7.70;99.90;;;;;;4833347;29;20081;-81
2022/01/14 12:15:10;;;;;;;29.25;4.18;;;8.00;99.90;;;;;;4882705;29;20492;-81
2022/01/14 12:17:42;;;;;;;28.27;4.88;;;8.00;99.90;;;;;;4851741;29;20051;-81
2022/01/14 12:20:21;;;;;;;19.55;4.00;;;7.80;99.90;;;;;;4890336;29;20047;-80
2022/01/14 12:23:17;;;;;;;22.42;4.20;;;7.90;99.90;;;;;;4907513;29;20055;-81
2022/01/14 12:25:45;;;;;;;28.20;5.13;;;7.80;99.90;;;;;;4903288;29;20065;-82
2022/01/14 12:28:16;;;;;;;20.83;3.97;;;7.80;99.90;;;;;;4984831;28;20045;-82
2022/01/14 12:31:01;;;;;;;21.05;4.60;;;8.10;99.90;;;;;;5023260;28;20499;-82
2022/01/14 12:33:45;;;;;;;23.40;4.50;;;7.80;99.90;;;;;;5071007;28;20054;-82
2022/01/14 12:36:18;;;;;;;23.85;4.35;;;7.80;99.90;;;;;;5017358;28;20480;-82
2022/01/14 12:38:45;;;;;;;26.60;5.22;;;7.80;99.90;;;;;;5037958;28;20120;-82
2022/01/14 12:41:23;;;;;;;17.52;4.07;;;7.80;99.90;;;;;;5043914;28;20085;-82
2022/01/14 12:43:49;;;;;;;30.80;4.68;;;7.80;99.90;;;;;;5018049;28;20132;-81
2022/01/14 12:49:05;;;;;;;26.30;4.55;;;7.90;99.90;;;;;;5048390;28;20393;-82
2022/01/14 12:51:32;;;;;;;32.53;5.20;;;7.80;99.90;;;;;;5046221;28;20056;-82
2022/01/14 12:54:18;;;;;;;33.08;4.78;;;7.80;99.90;;;;;;5059851;28;20059;-82
2022/01/14 12:56:53;;;;;;;28.73;5.03;;;7.80;99.90;;;;;;5032694;28;20079;-82
2022/01/14 12:59:19;;;;;;;23.85;5.20;;;7.70;99.90;;;;;;5033160;28;20114;-82
2022/01/14 13:01:50;;;;;;;25.00;4.90;;;7.70;99.90;;;;;;5049323;28;20044;-82
2022/01/14 13:04:17;;;;;;;30.40;5.95;;;7.70;99.90;;;;;;5049515;28;20049;-82
2022/01/14 13:11:30;;;;;;;;;;;;;;;;;;;;;
2022/01/14 13:17:50;;;;;;;26.48;4.80;;;7.50;99.90;;;;;;5044079;28;20054;-79
2022/01/14 13:20:24;;;;;;;35.00;5.85;;;8.40;99.90;;;;;;5016012;28;20072;-80
2022/01/14 13:22:59;;;;;;;27.33;4.78;;;7.60;99.90;;;;;;5031599;28;20419;-82
2022/01/14 13:25:30;;;;;;;25.67;5.45;;;7.70;99.90;;;;;;4990109;28;20134;-81
2022/01/14 13:28:04;;;;;;;39.53;6.03;;;7.70;99.90;;;;;;4961377;28;20050;-81
2022/01/14 13:31:15;;;;;;;38.40;5.93;;;7.00;99.90;;;;;;4965830;28;20101;-82
2022/01/14 13:34:21;;;;;;;39.63;5.90;;;7.70;99.90;;;;;;4949097;29;20452;-79
2022/01/14 13:37:20;;;;;;;36.55;6.00;;;7.60;99.90;;;;;;4910983;29;20338;-80
2022/01/14 13:40:23;;;;;;;;;;;;;;;;;;;;;
2022/01/14 13:43:37;;;;;;;;;;;;;;;;;;;;;
2022/01/14 13:46:19;;;;;;;27.20;4.93;;;7.50;99.90;;;;;;4949148;29;20118;-81
2022/01/14 13:48:48;;;;;;;35.83;6.65;;;8.50;99.90;;;;;;4933504;28;20287;-79
2022/01/14 13:51:36;;;;;;;27.88;5.65;;;8.50;99.90;;;;;;4934039;28;20483;-79
2022/01/14 13:54:20;;;;;;;44.45;6.53;;;8.50;99.90;;;;;;4967334;28;20062;-79
2022/01/14 13:56:50;;;;;;;29.50;5.90;;;8.50;99.90;;;;;;4985661;28;20045;-80
2022/01/14 13:59:20;;;;;;;36.83;6.43;;;8.40;99.90;;;;;;4987516;28;20531;-78
2022/01/14 14:01:57;;;;;;;42.95;7.18;;;7.60;99.90;;;;;;4998908;28;20516;-79
2022/01/14 14:04:29;;;;;;;42.47;7.10;;;7.60;99.90;;;;;;5009083;28;20120;-80
2022/01/14 14:07:36;;;;;;;46.70;6.53;;;7.60;99.90;;;;;;5030411;28;20057;-81